createdAt,value
2023-04-22T00:00:44.134Z,75.78
2023-04-22T00:01:44.073Z,76.63
2023-04-22T00:02:44.280Z,77.04
2023-04-22T00:03:44.274Z,76.32
2023-04-22T00:04:44.279Z,76.63
2023-04-22T00:05:44.132Z,76.93
2023-04-22T00:06:44.065Z,76.53
2023-04-22T00:07:44.236Z,76.73
2023-04-22T00:08:43.997Z,76.84
2023-04-22T00:09:44.000Z,76.73
2023-04-22T00:10:44.037Z,76.63
2023-04-22T00:11:43.961Z,76.63
2023-04-22T00:12:44.032Z,76.63
2023-04-22T00:13:43.993Z,76.53
2023-04-22T00:14:44.075Z,76.93
2023-04-22T00:15:43.992Z,76.63
2023-04-22T00:16:44.111Z,76.46
2023-04-22T00:17:43.970Z,77.59
2023-04-22T00:18:43.991Z,77.89
2023-04-22T00:19:43.926Z,77.18
2023-04-22T00:20:43.933Z,78.00
2023-04-22T00:21:43.902Z,78.13
2023-04-22T00:22:43.886Z,78.54
2023-04-22T00:23:43.868Z,79.36
2023-04-22T00:24:43.898Z,78.54
2023-04-22T00:25:43.866Z,78.34
2023-04-22T00:26:43.825Z,78.95
2023-04-22T00:27:43.814Z,78.23
2023-04-22T00:28:43.814Z,78.95
2023-04-22T00:29:43.805Z,78.75
2023-04-22T00:30:43.800Z,78.95
2023-04-22T00:31:43.860Z,78.54
2023-04-22T00:32:43.788Z,78.75
2023-04-22T00:33:44.653Z,78.75
2023-04-22T00:34:43.728Z,77.93
2023-04-22T00:35:43.738Z,78.75
2023-04-22T00:36:43.761Z,78.13
2023-04-22T00:37:43.696Z,78.58
2023-04-22T00:38:43.723Z,78.78
2023-04-22T00:39:43.855Z,78.68
2023-04-22T00:40:43.670Z,78.95
2023-04-22T00:41:43.843Z,78.78
2023-04-22T00:42:43.641Z,78.78
2023-04-22T00:43:43.694Z,78.07
2023-04-22T00:44:43.640Z,78.58
2023-04-22T00:45:43.632Z,78.17
2023-04-22T00:46:43.644Z,80.11
2023-04-22T00:48:16.719Z,78.68
2023-04-22T00:52:06.507Z,79.43
2023-04-22T00:53:06.459Z,78.52
2023-04-22T00:54:06.505Z,79.23
2023-04-22T00:55:06.510Z,80.29
2023-04-22T00:56:06.474Z,79.84
2023-04-22T00:57:06.485Z,79.94
2023-04-22T00:58:06.407Z,79.88
2023-04-22T00:59:06.460Z,79.88
2023-04-22T01:00:06.414Z,79.88
2023-04-22T01:01:06.455Z,81.31
2023-04-22T01:02:06.477Z,81.10
2023-04-22T01:03:06.485Z,81.51
2023-04-22T01:04:06.650Z,81.41
2023-04-22T01:05:06.369Z,80.25
2023-04-22T01:06:06.326Z,80.25
2023-04-22T01:07:06.339Z,80.35
2023-04-22T01:08:06.357Z,80.05
2023-04-22T01:09:07.217Z,79.50
2023-04-22T01:10:06.318Z,79.91
2023-04-22T01:11:06.343Z,80.05
2023-04-22T01:12:06.272Z,79.60
2023-04-22T01:13:06.258Z,79.39
2023-04-22T01:14:06.299Z,78.88
2023-04-22T01:15:40.151Z,78.88
2023-04-22T01:16:06.385Z,78.58
2023-04-22T01:20:03.814Z,79.84
2023-04-22T01:21:05.020Z,80.15
2023-04-22T01:22:04.964Z,79.94
2023-04-22T01:23:04.986Z,79.64
2023-04-22T01:24:04.929Z,80.15
2023-04-22T01:25:04.937Z,79.94
2023-04-22T01:26:04.918Z,80.08
2023-04-22T01:27:04.908Z,79.88
2023-04-22T01:28:04.881Z,79.43
2023-04-22T01:29:04.873Z,79.37
2023-04-22T01:30:04.873Z,79.98
2023-04-22T01:31:04.862Z,80.39
2023-04-22T01:32:04.914Z,80.49
2023-04-22T01:33:04.854Z,80.90
2023-04-22T01:34:04.858Z,80.69
2023-04-22T01:35:04.812Z,80.90
2023-04-22T01:36:05.637Z,80.56
2023-04-22T01:37:04.786Z,80.39
2023-04-22T01:38:04.792Z,80.19
2023-04-22T01:39:04.808Z,80.29
2023-04-22T01:40:04.743Z,80.08
2023-04-22T01:41:04.746Z,80.29
2023-04-22T01:42:05.251Z,79.68
2023-04-22T01:43:04.747Z,79.88
2023-04-22T01:44:04.743Z,80.60
2023-04-22T01:45:05.295Z,80.60
2023-04-22T01:46:04.723Z,80.08
2023-04-22T01:47:04.651Z,79.68
2023-04-22T01:48:04.975Z,80.39
2023-04-22T01:49:04.687Z,80.80
2023-04-22T01:50:04.652Z,80.69
2023-04-22T01:51:04.918Z,80.60
2023-04-22T01:52:04.599Z,80.60
2023-04-22T01:53:04.614Z,80.39
2023-04-22T01:54:04.627Z,81.01
2023-04-22T01:55:04.604Z,80.15
2023-04-22T01:56:04.603Z,80.25
2023-04-22T01:57:04.636Z,80.15
2023-04-22T01:58:04.575Z,80.35
2023-04-22T01:59:04.579Z,80.25
2023-04-22T02:00:04.546Z,79.94
2023-04-22T02:01:04.627Z,79.43
2023-04-22T02:02:04.524Z,80.25
2023-04-22T02:03:04.612Z,80.25
2023-04-22T02:04:05.155Z,80.19
2023-04-22T02:05:04.514Z,80.39
2023-04-22T02:06:04.472Z,81.21
2023-04-22T02:07:05.137Z,81.72
2023-04-22T02:08:04.454Z,81.51
2023-04-22T02:09:04.448Z,81.62
2023-04-22T02:10:04.460Z,81.56
2023-04-22T02:11:04.412Z,81.62
2023-04-22T02:12:04.452Z,82.03
2023-04-22T02:13:04.439Z,82.07
2023-04-22T02:14:04.425Z,81.72
2023-04-22T02:15:04.385Z,81.72
2023-04-22T02:16:04.435Z,81.41
2023-04-22T02:17:04.339Z,81.21
2023-04-22T02:18:04.388Z,81.21
2023-04-22T02:19:04.323Z,80.76
2023-04-22T02:20:04.341Z,80.56
2023-04-22T02:21:04.300Z,80.46
2023-04-22T02:22:04.264Z,80.69
2023-04-22T02:23:04.292Z,81.41
2023-04-22T02:24:04.315Z,81.21
2023-04-22T02:25:04.239Z,80.83
2023-04-22T02:26:04.272Z,81.65
2023-04-22T02:27:04.214Z,81.86
2023-04-22T02:28:04.772Z,82.00
2023-04-22T02:29:04.283Z,83.68
2023-04-22T02:30:04.381Z,83.78
2023-04-22T02:31:04.333Z,84.09
2023-04-22T02:32:04.253Z,84.29
2023-04-22T02:33:04.352Z,84.60
2023-04-22T02:34:04.252Z,84.60
2023-04-22T02:35:04.226Z,84.60
2023-04-22T02:36:04.576Z,84.19
2023-04-22T02:37:04.221Z,84.39
2023-04-22T02:38:04.236Z,84.25
2023-04-22T02:39:04.374Z,84.36
2023-04-22T02:40:04.216Z,84.46
2023-04-22T02:41:04.174Z,83.84
2023-04-22T02:42:04.274Z,83.74
2023-04-22T02:43:04.166Z,83.95
2023-04-22T02:44:04.148Z,84.05
2023-04-22T02:45:04.074Z,84.05
2023-04-22T02:46:04.248Z,83.95
2023-04-22T02:47:04.201Z,83.74
2023-04-22T02:48:04.162Z,83.81
2023-04-22T02:49:04.028Z,83.33
2023-04-22T02:50:04.059Z,83.74
2023-04-22T02:51:04.037Z,83.33
2023-04-22T02:52:04.080Z,83.50
2023-04-22T02:53:04.107Z,83.09
2023-04-22T02:54:04.039Z,82.98
2023-04-22T02:55:04.087Z,83.33
2023-04-22T02:56:03.968Z,83.74
2023-04-22T02:57:04.313Z,83.84
2023-04-22T02:58:04.073Z,83.95
2023-04-22T02:59:03.926Z,84.15
2023-04-22T03:00:04.805Z,83.54
2023-04-22T03:01:04.005Z,83.81
2023-04-22T03:02:06.530Z,83.60
2023-04-22T03:03:05.091Z,83.70
2023-04-22T03:04:04.156Z,83.39
2023-04-22T03:05:04.269Z,83.39
2023-04-22T03:06:03.804Z,83.64
2023-04-22T03:07:03.831Z,83.50
2023-04-22T03:08:03.809Z,83.39
2023-04-22T03:09:03.828Z,83.36
2023-04-22T03:15:38.385Z,82.95
2023-04-22T03:23:59.816Z,84.42
2023-04-22T03:34:26.934Z,84.22
2023-04-22T03:34:58.168Z,84.38
2023-04-22T03:45:31.342Z,83.52
2023-04-22T03:54:27.447Z,84.07
2023-04-22T04:05:49.136Z,84.22
2023-04-22T04:06:13.117Z,84.79
2023-04-22T04:07:12.891Z,84.28
2023-04-22T04:08:13.078Z,84.38
2023-04-22T04:09:12.928Z,84.28
2023-04-22T04:10:12.928Z,84.22
2023-04-22T04:11:12.835Z,84.17
2023-04-22T04:12:12.805Z,83.87
2023-04-22T04:13:12.797Z,83.76
2023-04-22T04:14:12.815Z,83.66
2023-04-22T04:15:12.774Z,83.46
2023-04-22T04:16:12.804Z,83.56
2023-04-22T04:17:12.773Z,83.46
2023-04-22T04:18:12.785Z,83.76
2023-04-22T04:19:12.847Z,84.31
2023-04-22T04:20:12.829Z,83.91
2023-04-22T04:21:12.862Z,84.52
2023-04-22T04:22:12.690Z,84.63
2023-04-22T04:23:12.722Z,84.93
2023-04-22T04:24:12.692Z,85.24
2023-04-22T04:25:12.680Z,85.64
2023-04-22T04:26:12.624Z,85.55
2023-04-22T04:27:12.650Z,85.85
2023-04-22T04:28:12.619Z,85.44
2023-04-22T04:29:12.598Z,84.89
2023-04-22T04:30:12.627Z,84.69
2023-04-22T04:31:12.627Z,84.58
2023-04-22T04:32:12.612Z,83.93
2023-04-22T04:33:12.767Z,83.93
2023-04-22T04:34:12.528Z,83.93
2023-04-22T04:35:12.584Z,83.76
2023-04-22T04:36:12.504Z,83.62
2023-04-22T04:37:12.558Z,83.66
2023-04-22T04:38:12.508Z,83.73
2023-04-22T04:39:12.504Z,83.73
2023-04-22T04:40:12.511Z,83.66
2023-04-22T04:41:12.516Z,84.63
2023-04-22T04:42:12.513Z,84.99
2023-04-22T04:43:12.417Z,84.89
2023-04-22T04:44:12.487Z,85.20
2023-04-22T04:45:12.429Z,85.10
2023-04-22T04:46:12.523Z,85.61
2023-04-22T04:47:12.452Z,85.10
2023-04-22T04:48:12.480Z,84.44
2023-04-22T04:49:12.399Z,84.69
2023-04-22T04:50:12.365Z,84.34
2023-04-22T04:51:12.511Z,84.34
2023-04-22T04:52:12.347Z,84.03
2023-04-22T04:53:12.312Z,84.24
2023-04-22T04:54:12.336Z,83.69
2023-04-22T04:55:12.322Z,83.48
2023-04-22T04:56:12.366Z,83.38
2023-04-22T04:57:12.323Z,83.28
2023-04-22T04:58:12.280Z,82.87
2023-04-22T04:59:12.297Z,82.87
2023-04-22T05:00:12.276Z,82.83
2023-04-22T05:01:12.320Z,82.83
2023-04-22T05:02:12.366Z,82.93
2023-04-22T05:03:12.363Z,82.73
2023-04-22T05:04:12.523Z,82.63
2023-04-22T05:05:12.182Z,82.79
2023-04-22T05:06:12.280Z,82.28
2023-04-22T05:07:12.198Z,82.28
2023-04-22T05:08:12.200Z,82.08
2023-04-22T05:09:12.183Z,82.24
2023-04-22T05:10:12.161Z,82.24
2023-04-22T05:11:12.148Z,81.84
2023-04-22T05:12:12.655Z,81.63
2023-04-22T05:13:12.135Z,81.73
2023-04-22T05:14:12.163Z,81.39
2023-04-22T05:15:12.106Z,80.98
2023-04-22T05:16:12.338Z,81.15
2023-04-22T05:17:12.091Z,81.04
2023-04-22T05:18:12.671Z,79.93
2023-04-22T05:19:12.061Z,79.68
2023-04-22T05:20:12.060Z,79.85
2023-04-22T05:21:12.017Z,78.28
2023-04-22T05:22:12.030Z,77.60
2023-04-22T05:23:12.044Z,76.38
2023-04-22T05:24:12.021Z,76.34
2023-04-22T05:25:12.046Z,74.99
2023-04-22T05:26:11.965Z,74.38
2023-04-22T05:27:11.990Z,74.07
2023-04-22T05:28:11.954Z,73.57
2023-04-22T05:29:11.958Z,73.87
2023-04-22T05:30:11.962Z,73.57
2023-04-22T05:31:11.907Z,73.97
2023-04-22T05:32:11.938Z,73.70
2023-04-22T05:33:11.911Z,74.41
2023-04-22T05:34:11.940Z,74.65
2023-04-22T05:35:11.865Z,74.96
2023-04-22T05:36:11.921Z,74.76
2023-04-22T05:37:12.656Z,74.96
2023-04-22T05:38:11.890Z,75.84
2023-04-22T05:39:11.840Z,75.23
2023-04-22T05:40:11.860Z,75.12
2023-04-22T05:41:11.833Z,74.38
2023-04-22T05:42:11.878Z,73.74
2023-04-22T05:43:11.790Z,72.75
2023-04-22T05:44:11.780Z,71.88
2023-04-22T05:45:11.770Z,70.59
2023-04-22T05:46:11.791Z,68.50
2023-04-22T05:47:11.784Z,68.37
2023-04-22T05:48:11.737Z,67.43
2023-04-22T05:49:11.678Z,66.48
2023-04-22T05:50:11.705Z,65.95
2023-04-22T05:51:11.660Z,64.73
2023-04-22T05:52:11.694Z,63.56
2023-04-22T05:53:11.712Z,63.06
2023-04-22T05:54:11.654Z,63.13
2023-04-22T05:55:11.639Z,62.22
2023-04-22T05:56:11.615Z,61.59
2023-04-22T05:57:11.633Z,61.05
2023-04-22T05:58:11.625Z,61.18
2023-04-22T05:59:11.606Z,60.55
2023-04-22T06:00:11.600Z,61.05
2023-04-22T06:01:11.568Z,60.35
2023-04-22T06:02:11.692Z,60.02
2023-04-22T06:03:11.791Z,58.88
2023-04-22T06:04:11.705Z,59.06
2023-04-22T06:05:11.696Z,58.65
2023-04-22T06:06:11.548Z,58.42
2023-04-22T06:07:11.507Z,58.42
2023-04-22T06:08:11.550Z,58.73
2023-04-22T06:09:11.563Z,57.92
2023-04-22T06:10:11.503Z,58.12
2023-04-22T06:11:11.486Z,58.12
2023-04-22T06:12:11.467Z,58.02
2023-04-22T06:13:11.436Z,58.12
2023-04-22T06:14:11.423Z,58.62
2023-04-22T06:15:11.400Z,58.00
2023-04-22T06:16:11.466Z,56.96
2023-04-22T06:17:12.236Z,56.03
2023-04-22T06:18:11.404Z,54.38
2023-04-22T06:19:11.515Z,56.41
2023-04-22T06:20:11.582Z,55.66
2023-04-22T06:21:11.337Z,54.72
2023-04-22T06:22:11.290Z,56.16
2023-04-22T06:23:11.404Z,57.18
2023-04-22T06:24:11.319Z,60.09
2023-04-22T06:25:12.393Z,62.37
2023-04-22T06:26:11.380Z,60.89
2023-04-22T06:27:11.307Z,62.27
2023-04-22T06:28:11.227Z,63.28
2023-04-22T06:29:11.247Z,63.28
2023-04-22T06:30:11.232Z,62.67
2023-04-22T06:31:11.327Z,63.44
2023-04-22T06:32:11.232Z,64.58
2023-04-22T06:33:11.219Z,64.86
2023-04-22T06:34:11.204Z,63.10
2023-04-22T06:35:11.279Z,64.58
2023-04-22T06:36:11.178Z,64.11
2023-04-22T06:37:11.186Z,64.34
2023-04-22T06:38:11.146Z,65.99
2023-04-22T06:39:11.436Z,66.80
2023-04-22T06:40:11.134Z,67.48
2023-04-22T06:41:11.141Z,65.02
2023-04-22T06:42:11.095Z,66.50
2023-04-22T06:43:11.087Z,66.19
2023-04-22T06:46:13.846Z,66.47
2023-04-22T06:47:15.080Z,65.76
2023-04-22T06:48:15.043Z,66.84
2023-04-22T06:49:15.064Z,65.09
2023-04-22T06:50:15.002Z,65.50
2023-04-22T06:51:14.929Z,65.12
2023-04-22T06:52:14.920Z,64.07
2023-04-22T06:53:14.945Z,63.81
2023-04-22T06:54:14.889Z,62.19
2023-04-22T06:55:14.899Z,62.07
2023-04-22T06:56:14.842Z,63.04
2023-04-22T06:57:14.874Z,64.18
2023-04-22T06:58:14.886Z,64.86
2023-04-22T06:59:14.824Z,64.58
2023-04-22T07:00:14.866Z,64.93
2023-04-22T07:01:14.837Z,62.74
2023-04-22T07:02:14.821Z,63.02
2023-04-22T07:03:14.854Z,60.66
2023-04-22T07:04:14.888Z,60.16
2023-04-22T07:05:14.814Z,61.27
2023-04-22T07:06:14.740Z,60.33
2023-04-22T07:07:14.764Z,59.09
2023-04-22T07:08:14.722Z,60.24
2023-04-22T07:09:14.723Z,60.10
2023-04-22T07:10:14.722Z,58.56
2023-04-22T07:11:14.687Z,58.67
2023-04-22T07:12:14.677Z,57.95
2023-04-22T07:13:14.792Z,55.91
2023-04-22T07:14:14.723Z,54.83
2023-04-22T07:15:14.624Z,52.62
2023-04-22T07:16:14.642Z,51.97
2023-04-22T07:17:14.635Z,49.41
2023-04-22T07:18:14.605Z,51.72
2023-04-22T07:19:14.650Z,51.46
2023-04-22T07:20:14.584Z,49.91
2023-04-22T07:21:14.579Z,49.49
2023-04-22T07:22:14.585Z,49.74
2023-04-22T07:23:14.563Z,51.04
2023-04-22T07:24:14.600Z,52.12
2023-04-22T07:25:14.560Z,54.53
2023-04-22T07:26:14.543Z,55.48
2023-04-22T07:27:14.643Z,54.38
2023-04-22T07:28:14.546Z,52.49
2023-04-22T07:29:14.498Z,50.29
2023-04-22T07:30:14.541Z,52.22
2023-04-22T07:31:14.461Z,51.64
2023-04-22T07:32:14.544Z,50.02
2023-04-22T07:33:14.462Z,47.40
2023-04-22T07:34:14.465Z,45.94
2023-04-22T07:35:14.509Z,43.86
2023-04-22T07:36:14.414Z,44.26
2023-04-22T07:37:14.454Z,42.83
2023-04-22T07:38:14.778Z,41.93
2023-04-22T07:39:15.408Z,43.71
2023-04-22T07:40:14.380Z,46.12
2023-04-22T07:41:14.360Z,47.05
2023-04-22T07:42:14.431Z,49.64
2023-04-22T07:43:14.398Z,48.74
2023-04-22T07:44:14.356Z,51.34
2023-04-22T07:45:14.329Z,50.37
2023-04-22T07:46:14.405Z,49.02
2023-04-22T07:47:14.300Z,49.84
2023-04-22T07:48:14.330Z,48.94
2023-04-22T07:49:14.481Z,48.66
2023-04-22T07:50:14.322Z,50.19
2023-04-22T07:51:14.295Z,49.91
2023-04-22T07:52:14.247Z,49.46
2023-04-22T07:53:14.278Z,51.69
2023-04-22T07:54:14.488Z,51.82
2023-04-22T07:55:14.248Z,51.97
2023-04-22T07:56:14.251Z,52.57
2023-04-22T07:57:14.207Z,52.37
2023-04-22T07:58:14.168Z,52.17
2023-04-22T07:59:14.134Z,52.39
2023-04-22T08:00:14.174Z,50.77
2023-04-22T08:01:14.247Z,49.12
2023-04-22T08:02:14.188Z,50.21
2023-04-22T08:03:14.297Z,53.83
2023-04-22T08:04:14.364Z,52.84
2023-04-22T08:05:14.248Z,52.64
2023-04-22T08:06:14.142Z,53.90
2023-04-22T08:07:30.819Z,50.92
2023-04-22T08:08:16.093Z,49.87
2023-04-22T08:09:14.131Z,50.84
2023-04-22T08:10:14.101Z,49.02
2023-04-22T08:11:14.082Z,50.46
2023-04-22T08:12:14.074Z,50.09
2023-04-22T08:13:14.879Z,50.42
2023-04-22T08:14:14.191Z,49.11
2023-04-22T08:15:14.072Z,48.96
2023-04-22T08:16:14.185Z,48.90
2023-04-22T08:17:13.989Z,47.99
2023-04-22T08:18:14.029Z,46.45
2023-04-22T08:19:14.065Z,48.57
2023-04-22T08:20:14.011Z,49.86
2023-04-22T08:21:13.940Z,49.93
2023-04-22T08:22:13.961Z,51.19
2023-04-22T08:23:13.961Z,52.37
2023-04-22T08:24:13.920Z,51.79
2023-04-22T08:25:13.957Z,51.32
2023-04-22T08:26:13.918Z,51.49
2023-04-22T08:27:13.883Z,51.51
2023-04-22T08:28:13.861Z,52.09
2023-04-22T08:29:13.874Z,51.49
2023-04-22T08:30:13.896Z,49.91
2023-04-22T08:31:13.857Z,51.67
2023-04-22T08:32:13.962Z,50.94
2023-04-22T08:33:13.849Z,52.32
2023-04-22T08:34:13.828Z,52.22
2023-04-22T08:35:13.858Z,53.32
2023-04-22T08:36:14.799Z,53.92
2023-04-22T08:37:13.789Z,52.47
2023-04-22T08:38:13.811Z,52.62
2023-04-22T08:39:13.747Z,54.47
2023-04-22T08:40:13.739Z,53.02
2023-04-22T08:41:13.767Z,52.34
2023-04-22T08:42:13.710Z,51.99
2023-04-22T08:43:13.744Z,53.45
2023-04-22T08:44:13.744Z,52.42
2023-04-22T08:45:13.766Z,53.95
2023-04-22T08:46:13.735Z,52.69
2023-04-22T08:47:13.695Z,52.77
2023-04-22T08:48:13.678Z,52.42
2023-04-22T08:49:13.730Z,52.77
2023-04-22T08:50:13.644Z,53.09
2023-04-22T08:51:13.675Z,50.69
2023-04-22T08:52:13.694Z,51.32
2023-04-22T08:53:13.642Z,52.64
2023-04-22T08:54:13.631Z,52.47
2023-04-22T08:55:13.622Z,50.84
2023-04-22T08:56:13.645Z,50.87
2023-04-22T08:57:13.637Z,49.24
2023-04-22T08:58:13.555Z,51.27
2023-04-22T08:59:13.559Z,50.07
2023-04-22T09:00:14.542Z,50.87
2023-04-22T09:01:13.568Z,51.22
2023-04-22T09:02:14.493Z,49.07
2023-04-22T09:03:13.622Z,50.26
2023-04-22T09:04:14.338Z,51.07
2023-04-22T09:05:13.544Z,49.94
2023-04-22T09:06:13.486Z,49.40
2023-04-22T09:07:13.482Z,49.11
2023-04-22T09:08:13.598Z,49.07
2023-04-22T09:09:13.472Z,51.47
2023-04-22T09:10:13.426Z,49.10
2023-04-22T09:11:13.419Z,47.51
2023-04-22T09:12:13.401Z,45.79
2023-04-22T09:13:13.400Z,46.11
2023-04-22T09:14:13.421Z,47.67
2023-04-22T09:15:13.484Z,48.57
2023-04-22T09:16:13.466Z,49.07
2023-04-22T09:17:13.375Z,49.15
2023-04-22T09:18:13.370Z,51.52
2023-04-22T09:19:13.406Z,49.09
2023-04-22T09:20:15.891Z,49.47
2023-04-22T09:21:14.341Z,49.32
2023-04-22T09:22:13.324Z,47.72
2023-04-22T09:23:13.301Z,47.75
2023-04-22T09:24:13.454Z,47.87
2023-04-22T09:25:13.299Z,48.77
2023-04-22T09:26:13.305Z,49.79
2023-04-22T09:27:13.326Z,48.22
2023-04-22T09:28:13.485Z,47.60
2023-04-22T09:29:13.304Z,47.50
2023-04-22T09:30:13.504Z,46.24
2023-04-22T09:31:13.428Z,46.31
2023-04-22T09:32:14.231Z,49.37
2023-04-22T09:33:13.339Z,49.22
2023-04-22T09:34:13.267Z,49.29
2023-04-22T09:35:13.168Z,49.47
2023-04-22T09:36:13.244Z,49.34
2023-04-22T09:37:13.358Z,49.52
2023-04-22T09:38:13.183Z,50.64
2023-04-22T09:39:13.626Z,49.69
2023-04-22T09:40:13.301Z,49.15
2023-04-22T09:41:13.204Z,49.15
2023-04-22T09:42:13.116Z,48.85
2023-04-22T09:43:13.259Z,49.55
2023-04-22T09:44:13.364Z,47.33
2023-04-22T09:45:13.155Z,49.40
2023-04-22T09:46:13.280Z,47.66
2023-04-22T09:47:13.063Z,47.03
2023-04-22T09:48:13.464Z,48.52
2023-04-22T09:49:13.328Z,47.40
2023-04-22T09:50:13.035Z,47.80
2023-04-22T09:51:13.156Z,47.97
2023-04-22T09:52:13.269Z,49.09
2023-04-22T09:53:13.129Z,49.32
2023-04-22T09:54:13.194Z,48.97
2023-04-22T09:55:13.040Z,49.50
2023-04-22T09:56:13.532Z,48.20
2023-04-22T09:57:13.026Z,47.40
2023-04-22T09:58:13.165Z,47.50
2023-04-22T09:59:13.001Z,48.55
2023-04-22T10:00:13.185Z,48.80
2023-04-22T10:01:13.052Z,48.60
2023-04-22T10:02:13.939Z,49.29
2023-04-22T10:03:13.044Z,49.69
2023-04-22T10:04:12.901Z,49.32
2023-04-22T10:05:13.059Z,49.82
2023-04-22T10:06:13.072Z,49.47
2023-04-22T10:07:13.137Z,49.35
2023-04-22T10:08:15.314Z,48.63
2023-04-22T10:09:13.324Z,49.02
2023-04-22T10:10:14.424Z,49.22
2023-04-22T10:11:13.908Z,49.08
2023-04-22T10:12:15.107Z,47.44
2023-04-22T10:13:12.916Z,47.68
2023-04-22T10:14:13.080Z,47.42
2023-04-22T10:15:13.951Z,47.72
2023-04-22T10:16:13.586Z,47.63
2023-04-22T10:17:14.816Z,48.22
2023-04-22T10:18:13.131Z,48.20
2023-04-22T10:19:14.124Z,47.16
2023-04-22T10:20:12.751Z,47.19
2023-04-22T10:21:13.501Z,43.95
2023-04-22T10:22:12.982Z,46.01
2023-04-22T10:23:12.846Z,45.50
2023-04-22T10:24:20.082Z,44.08
2023-04-22T10:25:13.409Z,43.90
2023-04-22T10:26:12.887Z,44.53
2023-04-22T10:27:12.721Z,46.48
2023-04-22T10:28:13.563Z,47.42
2023-04-22T10:29:12.802Z,46.31
2023-04-22T10:30:14.180Z,46.16
2023-04-22T10:31:13.379Z,46.73
2023-04-22T10:32:12.958Z,45.64
2023-04-22T10:33:15.612Z,45.82
2023-04-22T10:34:13.328Z,44.80
2023-04-22T10:35:14.010Z,43.60
2023-04-22T10:36:12.560Z,42.82
2023-04-22T10:37:13.758Z,39.73
2023-04-22T10:38:13.393Z,43.59
2023-04-22T10:39:12.844Z,42.35
2023-04-22T10:40:13.121Z,43.23
2023-04-22T10:41:12.861Z,43.55
2023-04-22T10:42:12.920Z,44.42
2023-04-22T10:43:12.722Z,41.53
2023-04-22T10:44:12.501Z,40.66
2023-04-22T10:45:12.653Z,39.14
2023-04-22T10:46:12.995Z,38.51
2023-04-22T10:47:12.562Z,36.62
2023-04-22T10:48:12.926Z,40.96
2023-04-22T10:49:13.178Z,40.40
2023-04-22T10:50:12.417Z,42.39
2023-04-22T10:51:12.784Z,43.41
2023-04-22T10:52:12.486Z,43.81
2023-04-22T10:53:13.652Z,43.93
2023-04-22T10:54:12.581Z,44.63
2023-04-22T10:55:12.680Z,43.29
2023-04-22T10:56:13.341Z,44.11
2023-04-22T10:57:12.953Z,44.07
2023-04-22T10:58:12.953Z,43.82
2023-04-22T10:59:12.372Z,43.47
2023-04-22T11:00:12.620Z,43.27
2023-04-22T11:01:14.084Z,43.15
2023-04-22T11:02:12.350Z,42.97
2023-04-22T11:03:12.800Z,44.53
2023-04-22T11:04:12.312Z,43.93
2023-04-22T11:05:12.385Z,43.53
2023-04-22T11:06:12.370Z,43.11
2023-04-22T11:07:12.374Z,43.89
2023-04-22T11:08:12.722Z,43.39
2023-04-22T11:09:12.234Z,43.82
2023-04-22T11:10:12.362Z,42.73
2023-04-22T11:11:13.808Z,43.19
2023-04-22T11:12:12.294Z,41.53
2023-04-22T11:13:12.260Z,41.33
2023-04-22T11:14:12.683Z,40.80
2023-04-22T11:15:12.291Z,41.50
2023-04-22T11:16:12.157Z,40.32
2023-04-22T11:17:12.720Z,41.09
2023-04-22T11:18:12.427Z,42.37
2023-04-22T11:19:12.103Z,43.25
2023-04-22T11:20:12.137Z,41.39
2023-04-22T11:21:12.316Z,40.50
2023-04-22T11:22:12.167Z,40.84
2023-04-22T11:23:12.341Z,41.82
2023-04-22T11:24:12.070Z,39.62
2023-04-22T11:25:12.123Z,40.78
2023-04-22T11:26:12.110Z,42.10
2023-04-22T11:27:12.960Z,41.24
2023-04-22T11:28:12.127Z,41.36
2023-04-22T11:29:12.459Z,41.03
2023-04-22T11:30:12.104Z,40.30
2023-04-22T11:31:14.126Z,40.42
2023-04-22T11:32:12.175Z,40.22
2023-04-22T11:33:12.243Z,41.44
2023-04-22T11:34:12.218Z,39.66
2023-04-22T11:35:11.969Z,41.61
2023-04-22T11:36:12.324Z,41.75
2023-04-22T11:37:12.131Z,43.55
2023-04-22T11:38:12.247Z,43.55
2023-04-22T11:39:12.893Z,42.83
2023-04-22T11:40:25.405Z,43.48
2023-04-22T11:41:13.885Z,43.18
2023-04-22T11:42:11.884Z,43.57
2023-04-22T11:43:11.819Z,43.40
2023-04-22T11:44:11.886Z,42.76
2023-04-22T11:45:11.886Z,42.25
2023-04-22T11:46:11.858Z,43.15
2023-04-22T11:47:11.785Z,43.55
2023-04-22T11:48:11.947Z,43.43
2023-04-22T11:49:28.458Z,42.27
2023-04-22T11:52:12.815Z,39.60
2023-04-22T11:53:11.763Z,42.10
2023-04-22T11:54:11.792Z,39.58
2023-04-22T11:55:11.795Z,41.39
2023-04-22T11:56:11.737Z,41.60
2023-04-22T11:57:11.686Z,41.25
2023-04-22T11:58:11.745Z,39.32
2023-04-22T11:59:11.772Z,40.34
2023-04-22T12:00:11.655Z,41.22
2023-04-22T12:01:11.673Z,39.70
2023-04-22T12:02:12.725Z,39.94
2023-04-22T12:03:15.446Z,41.25
2023-04-22T12:04:13.713Z,38.86
2023-04-22T12:05:11.687Z,41.06
2023-04-22T12:06:12.484Z,39.78
2023-04-22T12:07:11.644Z,39.18
2023-04-22T12:08:11.638Z,39.78
2023-04-22T12:09:13.356Z,39.90
2023-04-22T12:10:12.695Z,39.56
2023-04-22T12:11:11.580Z,40.14
2023-04-22T12:12:11.581Z,39.61
2023-04-22T12:13:11.520Z,39.80
2023-04-22T12:14:11.498Z,37.92
2023-04-22T12:15:13.525Z,37.40
2023-04-22T12:16:12.508Z,38.21
2023-04-22T12:17:12.724Z,38.31
2023-04-22T12:18:11.464Z,38.21
2023-04-22T12:19:11.480Z,38.69
2023-04-22T12:20:11.470Z,37.70
2023-04-22T12:21:11.465Z,35.92
2023-04-22T12:22:11.406Z,37.63
2023-04-22T12:23:11.536Z,37.95
2023-04-22T12:24:11.511Z,37.47
2023-04-22T12:25:11.427Z,37.87
2023-04-22T12:26:11.390Z,37.81
2023-04-22T12:27:11.967Z,39.54
2023-04-22T12:28:11.444Z,40.22
2023-04-22T12:29:11.364Z,39.20
2023-04-22T12:30:11.404Z,39.22
2023-04-22T12:31:11.335Z,39.90
2023-04-22T12:32:12.053Z,39.86
2023-04-22T12:33:48.145Z,37.93
2023-04-22T12:34:11.479Z,37.83
2023-04-22T12:35:11.597Z,37.75
2023-04-22T12:36:11.379Z,37.98
2023-04-22T12:37:11.353Z,39.02
2023-04-22T12:38:11.460Z,39.52
2023-04-22T12:39:11.384Z,39.98
2023-04-22T12:40:11.526Z,38.56
2023-04-22T12:41:11.228Z,39.08
2023-04-22T12:42:11.257Z,38.68
2023-04-22T12:43:11.262Z,39.40
2023-04-22T12:44:11.216Z,39.34
2023-04-22T12:45:11.741Z,39.74
2023-04-22T12:46:11.269Z,39.43
2023-04-22T12:47:11.229Z,40.56
2023-04-22T12:48:11.366Z,39.95
2023-04-22T12:49:11.244Z,39.84
2023-04-22T12:50:11.546Z,40.52
2023-04-22T12:51:11.147Z,39.92
2023-04-22T12:52:11.140Z,39.90
2023-04-22T12:53:11.278Z,38.94
2023-04-22T12:54:11.188Z,39.84
2023-04-22T12:55:11.114Z,39.52
2023-04-22T12:56:11.098Z,40.01
2023-04-22T12:57:11.082Z,39.74
2023-04-22T12:58:11.157Z,40.86
2023-04-22T12:59:11.207Z,41.05
2023-04-22T13:01:12.052Z,40.12
2023-04-22T13:02:11.126Z,39.72
2023-04-22T13:03:11.104Z,40.52
2023-04-22T13:04:11.116Z,39.82
2023-04-22T13:05:11.008Z,39.62
2023-04-22T13:06:10.951Z,41.05
2023-04-22T13:07:11.151Z,41.55
2023-04-22T13:08:10.943Z,41.46
2023-04-22T13:09:10.964Z,41.02
2023-04-22T13:10:11.015Z,40.94
2023-04-22T13:11:10.996Z,41.75
2023-04-22T13:12:10.911Z,40.56
2023-04-22T13:13:18.581Z,39.65
2023-04-22T13:14:12.908Z,40.25
2023-04-22T13:15:10.924Z,40.67
2023-04-22T13:16:11.038Z,41.55
2023-04-22T13:17:10.845Z,41.24
2023-04-22T13:18:10.972Z,39.52
2023-04-22T13:19:10.817Z,40.32
2023-04-22T13:20:10.851Z,40.92
2023-04-22T13:21:10.804Z,40.68
2023-04-22T13:22:10.840Z,39.64
2023-04-22T13:23:10.946Z,39.04
2023-04-22T13:24:10.859Z,39.34
2023-04-22T13:25:10.806Z,38.73
2023-04-22T13:26:10.864Z,40.04
2023-04-22T13:27:10.746Z,39.66
2023-04-22T13:28:11.011Z,38.68
2023-04-22T13:29:10.748Z,40.00
2023-04-22T13:30:10.703Z,41.61
2023-04-22T13:31:10.783Z,41.00
2023-04-22T13:32:10.689Z,39.60
2023-04-22T13:33:10.704Z,39.82
2023-04-22T13:34:10.824Z,40.10
2023-04-22T13:35:10.734Z,39.50
2023-04-22T13:36:10.606Z,40.10
2023-04-22T13:37:10.988Z,39.96
2023-04-22T13:38:10.700Z,38.98
2023-04-22T13:39:10.648Z,39.80
2023-04-22T13:40:10.625Z,38.67
2023-04-22T13:41:10.621Z,38.96
2023-04-22T13:42:10.595Z,38.90
2023-04-22T13:43:11.082Z,40.10
2023-04-22T13:44:10.588Z,40.38
2023-04-22T13:45:10.571Z,39.60
2023-04-22T13:46:10.561Z,39.10
2023-04-22T13:47:10.695Z,39.88
2023-04-22T13:48:10.563Z,40.06
2023-04-22T13:49:10.529Z,40.28
2023-04-22T13:50:10.558Z,39.88
2023-04-22T13:51:10.555Z,39.56
2023-04-22T13:52:10.580Z,40.38
2023-04-22T13:53:10.565Z,40.00